sensor_id;sensor_type;location;lat;lon;timestamp;temperature;humidity
33673;DHT22;20011;51.510;9.942;2023-06-05T00:00:25;13.60;87.70
33673;DHT22;20011;51.510;9.942;2023-06-05T00:02:52;13.60;87.90
33673;DHT22;20011;51.510;9.942;2023-06-05T00:05:19;13.50;88.00
33673;DHT22;20011;51.510;9.942;2023-06-05T00:07:45;13.50;88.00
33673;DHT22;20011;51.510;9.942;2023-06-05T00:10:12;13.40;88.50
33673;DHT22;20011;51.510;9.942;2023-06-05T00:12:40;13.40;88.80
33673;DHT22;20011;51.510;9.942;2023-06-05T00:15:08;13.40;89.30
33673;DHT22;20011;51.510;9.942;2023-06-05T00:17:35;13.40;89.30
33673;DHT22;20011;51.510;9.942;2023-06-05T00:20:04;13.40;89.00
33673;DHT22;20011;51.510;9.942;2023-06-05T00:22:36;13.40;89.00
33673;DHT22;20011;51.510;9.942;2023-06-05T00:25:04;13.50;89.70
33673;DHT22;20011;51.510;9.942;2023-06-05T00:27:32;13.40;89.30
33673;DHT22;20011;51.510;9.942;2023-06-05T00:29:59;13.50;89.40
33673;DHT22;20011;51.510;9.942;2023-06-05T00:32:26;13.50;90.00
33673;DHT22;20011;51.510;9.942;2023-06-05T00:34:53;13.40;90.20
33673;DHT22;20011;51.510;9.942;2023-06-05T00:37:20;13.40;90.20
33673;DHT22;20011;51.510;9.942;2023-06-05T00:39:47;13.30;90.30
33673;DHT22;20011;51.510;9.942;2023-06-05T00:42:14;13.30;90.50
33673;DHT22;20011;51.510;9.942;2023-06-05T00:44:41;13.30;90.60
33673;DHT22;20011;51.510;9.942;2023-06-05T00:47:08;13.30;90.50
33673;DHT22;20011;51.510;9.942;2023-06-05T00:49:36;13.20;90.40
33673;DHT22;20011;51.510;9.942;2023-06-05T00:52:03;13.20;90.60
33673;DHT22;20011;51.510;9.942;2023-06-05T00:54:31;13.20;90.70
33673;DHT22;20011;51.510;9.942;2023-06-05T00:56:58;13.10;90.80
33673;DHT22;20011;51.510;9.942;2023-06-05T00:59:27;13.20;90.60
33673;DHT22;20011;51.510;9.942;2023-06-05T01:01:56;13.20;90.60
33673;DHT22;20011;51.510;9.942;2023-06-05T01:04:23;13.20;90.60
33673;DHT22;20011;51.510;9.942;2023-06-05T01:06:50;13.10;90.70
33673;DHT22;20011;51.510;9.942;2023-06-05T01:09:19;13.10;90.90
33673;DHT22;20011;51.510;9.942;2023-06-05T01:14:23;13.10;90.90
33673;DHT22;20011;51.510;9.942;2023-06-05T01:16:51;13.00;90.90
33673;DHT22;20011;51.510;9.942;2023-06-05T01:19:24;13.00;90.90
33673;DHT22;20011;51.510;9.942;2023-06-05T01:21:55;12.90;90.80
33673;DHT22;20011;51.510;9.942;2023-06-05T01:24:40;12.80;90.80
33673;DHT22;20011;51.510;9.942;2023-06-05T01:27:10;12.80;91.10
33673;DHT22;20011;51.510;9.942;2023-06-05T01:30:21;12.80;91.20
33673;DHT22;20011;51.510;9.942;2023-06-05T01:33:37;12.70;91.00
33673;DHT22;20011;51.510;9.942;2023-06-05T01:36:04;12.70;91.20
33673;DHT22;20011;51.510;9.942;2023-06-05T01:38:33;12.70;91.20
33673;DHT22;20011;51.510;9.942;2023-06-05T01:41:03;12.70;91.10
33673;DHT22;20011;51.510;9.942;2023-06-05T01:43:32;12.90;91.10
33673;DHT22;20011;51.510;9.942;2023-06-05T01:46:00;12.70;91.10
33673;DHT22;20011;51.510;9.942;2023-06-05T01:48:28;12.70;91.40
33673;DHT22;20011;51.510;9.942;2023-06-05T01:50:58;12.70;91.10
33673;DHT22;20011;51.510;9.942;2023-06-05T01:53:28;12.60;91.10
33673;DHT22;20011;51.510;9.942;2023-06-05T01:55:56;12.60;91.10
33673;DHT22;20011;51.510;9.942;2023-06-05T01:58:24;12.60;91.30
33673;DHT22;20011;51.510;9.942;2023-06-05T02:00:52;12.60;91.30
33673;DHT22;20011;51.510;9.942;2023-06-05T02:03:20;12.60;91.30
33673;DHT22;20011;51.510;9.942;2023-06-05T02:05:48;12.60;91.20
33673;DHT22;20011;51.510;9.942;2023-06-05T02:08:15;12.60;91.00
33673;DHT22;20011;51.510;9.942;2023-06-05T02:10:46;12.60;91.10
33673;DHT22;20011;51.510;9.942;2023-06-05T02:13:13;12.50;91.10
33673;DHT22;20011;51.510;9.942;2023-06-05T02:15:42;12.50;91.10
33673;DHT22;20011;51.510;9.942;2023-06-05T02:18:11;12.50;91.30
33673;DHT22;20011;51.510;9.942;2023-06-05T02:20:41;12.40;91.40
33673;DHT22;20011;51.510;9.942;2023-06-05T02:23:09;12.40;91.70
33673;DHT22;20011;51.510;9.942;2023-06-05T02:25:36;12.40;91.70
33673;DHT22;20011;51.510;9.942;2023-06-05T02:28:03;12.40;91.50
33673;DHT22;20011;51.510;9.942;2023-06-05T02:30:31;12.40;91.30
33673;DHT22;20011;51.510;9.942;2023-06-05T02:33:00;12.40;91.30
33673;DHT22;20011;51.510;9.942;2023-06-05T02:35:29;12.40;91.40
33673;DHT22;20011;51.510;9.942;2023-06-05T02:37:57;12.40;91.40
33673;DHT22;20011;51.510;9.942;2023-06-05T02:40:24;12.30;91.30
33673;DHT22;20011;51.510;9.942;2023-06-05T02:42:51;12.30;91.20
33673;DHT22;20011;51.510;9.942;2023-06-05T02:45:18;12.30;91.40
33673;DHT22;20011;51.510;9.942;2023-06-05T02:47:48;12.30;91.40
33673;DHT22;20011;51.510;9.942;2023-06-05T02:50:15;12.30;91.60
33673;DHT22;20011;51.510;9.942;2023-06-05T02:52:47;12.30;91.50
33673;DHT22;20011;51.510;9.942;2023-06-05T02:55:20;12.30;91.50
33673;DHT22;20011;51.510;9.942;2023-06-05T02:57:50;12.20;91.50
33673;DHT22;20011;51.510;9.942;2023-06-05T03:00:23;12.30;91.40
33673;DHT22;20011;51.510;9.942;2023-06-05T03:02:53;12.20;91.40
33673;DHT22;20011;51.510;9.942;2023-06-05T03:05:27;12.20;91.40
33673;DHT22;20011;51.510;9.942;2023-06-05T03:08:01;12.20;91.30
33673;DHT22;20011;51.510;9.942;2023-06-05T03:10:29;12.20;91.20
33673;DHT22;20011;51.510;9.942;2023-06-05T03:12:56;12.20;91.00
33673;DHT22;20011;51.510;9.942;2023-06-05T03:15:27;12.20;90.80
33673;DHT22;20011;51.510;9.942;2023-06-05T03:17:54;12.10;90.60
33673;DHT22;20011;51.510;9.942;2023-06-05T03:20:22;12.00;90.50
33673;DHT22;20011;51.510;9.942;2023-06-05T03:22:50;11.90;90.30
33673;DHT22;20011;51.510;9.942;2023-06-05T03:25:17;11.80;90.40
33673;DHT22;20011;51.510;9.942;2023-06-05T03:27:48;11.80;90.70
33673;DHT22;20011;51.510;9.942;2023-06-05T03:30:16;11.70;90.90
33673;DHT22;20011;51.510;9.942;2023-06-05T03:32:48;11.70;90.90
33673;DHT22;20011;51.510;9.942;2023-06-05T03:35:16;11.70;91.10
33673;DHT22;20011;51.510;9.942;2023-06-05T03:37:44;11.60;91.20
33673;DHT22;20011;51.510;9.942;2023-06-05T03:40:12;11.70;91.20
33673;DHT22;20011;51.510;9.942;2023-06-05T03:42:40;11.70;91.10
33673;DHT22;20011;51.510;9.942;2023-06-05T03:45:07;11.80;91.20
33673;DHT22;20011;51.510;9.942;2023-06-05T03:47:37;11.70;91.00
33673;DHT22;20011;51.510;9.942;2023-06-05T03:50:07;11.70;91.00
33673;DHT22;20011;51.510;9.942;2023-06-05T03:52:37;11.80;91.40
33673;DHT22;20011;51.510;9.942;2023-06-05T03:55:07;11.80;91.60
33673;DHT22;20011;51.510;9.942;2023-06-05T03:57:38;11.90;91.60
33673;DHT22;20011;51.510;9.942;2023-06-05T04:00:07;11.80;91.70
33673;DHT22;20011;51.510;9.942;2023-06-05T04:02:49;11.90;91.60
33673;DHT22;20011;51.510;9.942;2023-06-05T04:05:17;11.90;91.60
33673;DHT22;20011;51.510;9.942;2023-06-05T04:07:44;11.90;91.70
33673;DHT22;20011;51.510;9.942;2023-06-05T04:10:11;11.80;91.50
33673;DHT22;20011;51.510;9.942;2023-06-05T04:12:39;11.80;91.40
33673;DHT22;20011;51.510;9.942;2023-06-05T04:15:07;11.80;91.50
33673;DHT22;20011;51.510;9.942;2023-06-05T04:17:36;11.70;91.50
33673;DHT22;20011;51.510;9.942;2023-06-05T04:20:06;11.70;91.80
33673;DHT22;20011;51.510;9.942;2023-06-05T04:22:42;11.70;91.70
33673;DHT22;20011;51.510;9.942;2023-06-05T04:25:09;11.70;91.70
33673;DHT22;20011;51.510;9.942;2023-06-05T04:27:42;11.70;91.80
33673;DHT22;20011;51.510;9.942;2023-06-05T04:30:11;11.70;91.80
33673;DHT22;20011;51.510;9.942;2023-06-05T04:32:39;11.70;91.80
33673;DHT22;20011;51.510;9.942;2023-06-05T04:35:07;11.70;91.90
33673;DHT22;20011;51.510;9.942;2023-06-05T04:37:36;11.70;92.00
33673;DHT22;20011;51.510;9.942;2023-06-05T04:40:05;11.70;92.30
33673;DHT22;20011;51.510;9.942;2023-06-05T04:42:33;11.80;92.30
33673;DHT22;20011;51.510;9.942;2023-06-05T04:45:05;11.90;92.30
33673;DHT22;20011;51.510;9.942;2023-06-05T04:47:36;12.00;92.30
33673;DHT22;20011;51.510;9.942;2023-06-05T04:50:05;12.10;92.20
33673;DHT22;20011;51.510;9.942;2023-06-05T04:52:35;12.20;92.00
33673;DHT22;20011;51.510;9.942;2023-06-05T04:55:03;12.20;92.10
33673;DHT22;20011;51.510;9.942;2023-06-05T04:57:31;12.20;92.30
33673;DHT22;20011;51.510;9.942;2023-06-05T05:00:01;12.30;92.40
33673;DHT22;20011;51.510;9.942;2023-06-05T05:02:31;12.30;92.00
33673;DHT22;20011;51.510;9.942;2023-06-05T05:04:58;12.30;92.00
33673;DHT22;20011;51.510;9.942;2023-06-05T05:07:26;12.40;92.30
33673;DHT22;20011;51.510;9.942;2023-06-05T05:09:55;12.40;92.30
33673;DHT22;20011;51.510;9.942;2023-06-05T05:12:22;12.40;92.50
33673;DHT22;20011;51.510;9.942;2023-06-05T05:14:49;12.40;92.60
33673;DHT22;20011;51.510;9.942;2023-06-05T05:17:17;12.50;92.90
33673;DHT22;20011;51.510;9.942;2023-06-05T05:19:46;12.50;93.00
33673;DHT22;20011;51.510;9.942;2023-06-05T05:22:13;12.60;93.10
33673;DHT22;20011;51.510;9.942;2023-06-05T05:24:40;12.60;93.20
33673;DHT22;20011;51.510;9.942;2023-06-05T05:27:08;12.60;93.20
33673;DHT22;20011;51.510;9.942;2023-06-05T05:29:36;12.70;93.50
33673;DHT22;20011;51.510;9.942;2023-06-05T05:32:03;12.70;93.70
33673;DHT22;20011;51.510;9.942;2023-06-05T05:34:30;12.80;93.80
33673;DHT22;20011;51.510;9.942;2023-06-05T05:36:58;12.80;93.90
33673;DHT22;20011;51.510;9.942;2023-06-05T05:39:25;12.80;94.00
33673;DHT22;20011;51.510;9.942;2023-06-05T05:41:52;12.90;94.10
33673;DHT22;20011;51.510;9.942;2023-06-05T05:44:19;12.90;93.80
33673;DHT22;20011;51.510;9.942;2023-06-05T05:46:46;13.00;93.80
33673;DHT22;20011;51.510;9.942;2023-06-05T05:49:16;13.00;93.80
33673;DHT22;20011;51.510;9.942;2023-06-05T05:51:43;13.10;94.10
33673;DHT22;20011;51.510;9.942;2023-06-05T05:54:10;13.10;94.00
33673;DHT22;20011;51.510;9.942;2023-06-05T05:56:37;13.10;93.90
33673;DHT22;20011;51.510;9.942;2023-06-05T05:59:04;13.20;93.70
33673;DHT22;20011;51.510;9.942;2023-06-05T06:01:31;13.20;93.90
33673;DHT22;20011;51.510;9.942;2023-06-05T06:03:59;13.20;94.10
33673;DHT22;20011;51.510;9.942;2023-06-05T06:06:26;13.30;94.30
33673;DHT22;20011;51.510;9.942;2023-06-05T06:08:53;13.30;94.50
33673;DHT22;20011;51.510;9.942;2023-06-05T06:11:20;13.30;94.60
33673;DHT22;20011;51.510;9.942;2023-06-05T06:13:46;13.40;95.20
33673;DHT22;20011;51.510;9.942;2023-06-05T06:16:15;13.40;95.00
33673;DHT22;20011;51.510;9.942;2023-06-05T06:18:42;13.50;94.70
33673;DHT22;20011;51.510;9.942;2023-06-05T06:21:09;13.50;94.80
33673;DHT22;20011;51.510;9.942;2023-06-05T06:23:36;13.50;94.80
33673;DHT22;20011;51.510;9.942;2023-06-05T06:26:03;13.60;94.90
33673;DHT22;20011;51.510;9.942;2023-06-05T06:28:33;13.60;94.50
33673;DHT22;20011;51.510;9.942;2023-06-05T06:31:00;13.70;94.40
33673;DHT22;20011;51.510;9.942;2023-06-05T06:33:27;13.70;94.70
33673;DHT22;20011;51.510;9.942;2023-06-05T06:35:55;13.80;94.90
33673;DHT22;20011;51.510;9.942;2023-06-05T06:38:25;13.80;94.60
33673;DHT22;20011;51.510;9.942;2023-06-05T06:40:57;13.80;94.90
33673;DHT22;20011;51.510;9.942;2023-06-05T06:43:25;13.80;95.00
33673;DHT22;20011;51.510;9.942;2023-06-05T06:46:00;13.90;94.90
33673;DHT22;20011;51.510;9.942;2023-06-05T06:48:27;13.90;94.70
33673;DHT22;20011;51.510;9.942;2023-06-05T06:50:54;13.90;94.60
33673;DHT22;20011;51.510;9.942;2023-06-05T06:53:21;13.90;94.50
33673;DHT22;20011;51.510;9.942;2023-06-05T06:55:48;14.00;94.60
33673;DHT22;20011;51.510;9.942;2023-06-05T06:58:15;14.00;94.50
33673;DHT22;20011;51.510;9.942;2023-06-05T07:00:42;14.10;94.60
33673;DHT22;20011;51.510;9.942;2023-06-05T07:03:09;14.10;94.30
33673;DHT22;20011;51.510;9.942;2023-06-05T07:05:37;14.10;94.20
33673;DHT22;20011;51.510;9.942;2023-06-05T07:08:04;14.20;94.10
33673;DHT22;20011;51.510;9.942;2023-06-05T07:10:32;14.20;94.20
33673;DHT22;20011;51.510;9.942;2023-06-05T07:12:58;14.20;94.10
33673;DHT22;20011;51.510;9.942;2023-06-05T07:15:25;14.30;93.80
33673;DHT22;20011;51.510;9.942;2023-06-05T07:17:52;14.30;93.90
33673;DHT22;20011;51.510;9.942;2023-06-05T07:20:19;14.40;93.70
33673;DHT22;20011;51.510;9.942;2023-06-05T07:22:46;14.30;93.50
33673;DHT22;20011;51.510;9.942;2023-06-05T07:25:13;14.40;93.40
33673;DHT22;20011;51.510;9.942;2023-06-05T07:27:43;14.40;93.30
33673;DHT22;20011;51.510;9.942;2023-06-05T07:30:11;14.40;93.30
33673;DHT22;20011;51.510;9.942;2023-06-05T07:32:41;14.50;92.90
33673;DHT22;20011;51.510;9.942;2023-06-05T07:35:09;14.50;92.80
33673;DHT22;20011;51.510;9.942;2023-06-05T07:37:36;14.50;92.90
33673;DHT22;20011;51.510;9.942;2023-06-05T07:40:04;14.50;93.10
33673;DHT22;20011;51.510;9.942;2023-06-05T07:42:32;14.60;93.30
33673;DHT22;20011;51.510;9.942;2023-06-05T07:44:59;14.60;93.50
33673;DHT22;20011;51.510;9.942;2023-06-05T07:47:27;14.70;93.80
33673;DHT22;20011;51.510;9.942;2023-06-05T07:49:59;14.70;93.90
33673;DHT22;20011;51.510;9.942;2023-06-05T07:52:27;14.70;93.80
33673;DHT22;20011;51.510;9.942;2023-06-05T07:54:54;14.80;93.70
33673;DHT22;20011;51.510;9.942;2023-06-05T07:57:21;14.80;93.70
33673;DHT22;20011;51.510;9.942;2023-06-05T07:59:50;14.80;93.70
33673;DHT22;20011;51.510;9.942;2023-06-05T08:02:18;14.90;93.50
33673;DHT22;20011;51.510;9.942;2023-06-05T08:04:45;14.90;93.50
33673;DHT22;20011;51.510;9.942;2023-06-05T08:07:12;14.90;93.40
33673;DHT22;20011;51.510;9.942;2023-06-05T08:09:40;14.90;93.30
33673;DHT22;20011;51.510;9.942;2023-06-05T08:12:08;15.00;93.30
33673;DHT22;20011;51.510;9.942;2023-06-05T08:14:35;15.00;93.30
33673;DHT22;20011;51.510;9.942;2023-06-05T08:17:03;15.00;93.60
33673;DHT22;20011;51.510;9.942;2023-06-05T08:19:30;15.10;93.70
33673;DHT22;20011;51.510;9.942;2023-06-05T08:21:57;15.10;93.80
33673;DHT22;20011;51.510;9.942;2023-06-05T08:24:25;15.10;93.90
33673;DHT22;20011;51.510;9.942;2023-06-05T08:26:53;15.20;93.70
33673;DHT22;20011;51.510;9.942;2023-06-05T08:29:20;15.20;93.60
33673;DHT22;20011;51.510;9.942;2023-06-05T08:31:47;15.20;94.00
33673;DHT22;20011;51.510;9.942;2023-06-05T08:34:14;15.20;94.30
33673;DHT22;20011;51.510;9.942;2023-06-05T08:36:41;15.30;94.40
33673;DHT22;20011;51.510;9.942;2023-06-05T08:39:09;15.30;94.10
33673;DHT22;20011;51.510;9.942;2023-06-05T08:41:36;15.30;94.40
33673;DHT22;20011;51.510;9.942;2023-06-05T08:44:04;15.40;94.30
33673;DHT22;20011;51.510;9.942;2023-06-05T08:46:33;15.40;94.00
33673;DHT22;20011;51.510;9.942;2023-06-05T08:49:08;15.40;93.70
33673;DHT22;20011;51.510;9.942;2023-06-05T08:51:39;15.40;93.40
33673;DHT22;20011;51.510;9.942;2023-06-05T08:54:08;15.40;93.10
33673;DHT22;20011;51.510;9.942;2023-06-05T08:56:41;15.50;93.20
33673;DHT22;20011;51.510;9.942;2023-06-05T08:59:10;15.50;93.50
33673;DHT22;20011;51.510;9.942;2023-06-05T09:01:42;15.50;93.40
33673;DHT22;20011;51.510;9.942;2023-06-05T09:04:10;15.60;92.90
33673;DHT22;20011;51.510;9.942;2023-06-05T09:06:38;15.60;92.30
33673;DHT22;20011;51.510;9.942;2023-06-05T09:09:07;15.70;91.90
33673;DHT22;20011;51.510;9.942;2023-06-05T09:11:34;15.70;91.70
33673;DHT22;20011;51.510;9.942;2023-06-05T09:14:02;15.70;91.80
33673;DHT22;20011;51.510;9.942;2023-06-05T09:16:42;15.70;91.90
33673;DHT22;20011;51.510;9.942;2023-06-05T09:19:11;15.70;91.70
33673;DHT22;20011;51.510;9.942;2023-06-05T09:21:38;15.80;91.40
33673;DHT22;20011;51.510;9.942;2023-06-05T09:24:17;15.80;91.10
33673;DHT22;20011;51.510;9.942;2023-06-05T09:27:04;15.90;90.90
33673;DHT22;20011;51.510;9.942;2023-06-05T09:29:40;15.90;90.60
33673;DHT22;20011;51.510;9.942;2023-06-05T09:32:09;15.90;91.00
33673;DHT22;20011;51.510;9.942;2023-06-05T09:34:38;15.90;90.70
33673;DHT22;20011;51.510;9.942;2023-06-05T09:37:07;15.90;90.10
33673;DHT22;20011;51.510;9.942;2023-06-05T09:39:36;16.00;89.40
33673;DHT22;20011;51.510;9.942;2023-06-05T09:42:04;16.00;90.50
33673;DHT22;20011;51.510;9.942;2023-06-05T09:44:33;16.00;87.60
33673;DHT22;20011;51.510;9.942;2023-06-05T09:47:08;16.00;85.20
33673;DHT22;20011;51.510;9.942;2023-06-05T09:52:11;16.10;86.60
33673;DHT22;20011;51.510;9.942;2023-06-05T09:54:40;16.10;88.00
33673;DHT22;20011;51.510;9.942;2023-06-05T09:57:09;16.10;85.60
33673;DHT22;20011;51.510;9.942;2023-06-05T09:59:50;16.20;83.40
33673;DHT22;20011;51.510;9.942;2023-06-05T10:02:20;16.30;87.30
33673;DHT22;20011;51.510;9.942;2023-06-05T10:05:08;16.30;84.70
33673;DHT22;20011;51.510;9.942;2023-06-05T10:07:37;16.40;85.40
33673;DHT22;20011;51.510;9.942;2023-06-05T10:10:06;16.50;77.50
33673;DHT22;20011;51.510;9.942;2023-06-05T10:12:36;16.60;80.40
33673;DHT22;20011;51.510;9.942;2023-06-05T10:15:03;16.60;86.10
33673;DHT22;20011;51.510;9.942;2023-06-05T10:17:32;16.70;87.40
33673;DHT22;20011;51.510;9.942;2023-06-05T10:20:01;16.70;86.90
33673;DHT22;20011;51.510;9.942;2023-06-05T10:22:28;16.70;85.40
33673;DHT22;20011;51.510;9.942;2023-06-05T10:25:00;16.70;83.40
33673;DHT22;20011;51.510;9.942;2023-06-05T10:27:50;16.60;82.10
33673;DHT22;20011;51.510;9.942;2023-06-05T10:38:59;16.60;82.00
33673;DHT22;20011;51.510;9.942;2023-06-05T10:41:27;16.70;75.70
33673;DHT22;20011;51.510;9.942;2023-06-05T10:43:54;16.90;71.50
33673;DHT22;20011;51.510;9.942;2023-06-05T10:46:34;17.10;68.90
33673;DHT22;20011;51.510;9.942;2023-06-05T10:49:15;17.20;68.90
33673;DHT22;20011;51.510;9.942;2023-06-05T10:51:48;17.20;68.10
33673;DHT22;20011;51.510;9.942;2023-06-05T10:59:36;17.10;71.90
33673;DHT22;20011;51.510;9.942;2023-06-05T11:07:23;17.00;76.90
33673;DHT22;20011;51.510;9.942;2023-06-05T11:15:03;16.90;74.10
33673;DHT22;20011;51.510;9.942;2023-06-05T11:17:35;16.90;75.80
33673;DHT22;20011;51.510;9.942;2023-06-05T11:20:06;16.90;77.90
33673;DHT22;20011;51.510;9.942;2023-06-05T11:25:28;17.00;72.00
33673;DHT22;20011;51.510;9.942;2023-06-05T11:28:05;17.00;73.50
33673;DHT22;20011;51.510;9.942;2023-06-05T11:30:39;16.90;74.90
33673;DHT22;20011;51.510;9.942;2023-06-05T11:33:14;16.90;74.90
33673;DHT22;20011;51.510;9.942;2023-06-05T11:35:48;16.90;78.80
33673;DHT22;20011;51.510;9.942;2023-06-05T11:38:17;16.90;82.80
33673;DHT22;20011;51.510;9.942;2023-06-05T11:40:49;17.20;76.20
33673;DHT22;20011;51.510;9.942;2023-06-05T11:43:16;17.20;77.70
33673;DHT22;20011;51.510;9.942;2023-06-05T11:45:54;17.20;76.50
33673;DHT22;20011;51.510;9.942;2023-06-05T11:48:22;17.20;73.30
33673;DHT22;20011;51.510;9.942;2023-06-05T11:51:02;17.40;68.30
33673;DHT22;20011;51.510;9.942;2023-06-05T11:53:30;17.60;68.90
33673;DHT22;20011;51.510;9.942;2023-06-05T11:55:58;17.90;69.60
33673;DHT22;20011;51.510;9.942;2023-06-05T11:58:39;18.20;66.10
33673;DHT22;20011;51.510;9.942;2023-06-05T12:01:17;18.50;64.20
33673;DHT22;20011;51.510;9.942;2023-06-05T12:03:46;18.60;63.70
33673;DHT22;20011;51.510;9.942;2023-06-05T12:06:14;18.50;64.70
33673;DHT22;20011;51.510;9.942;2023-06-05T12:08:43;18.30;64.80
33673;DHT22;20011;51.510;9.942;2023-06-05T12:11:25;18.10;71.00
33673;DHT22;20011;51.510;9.942;2023-06-05T12:13:54;18.00;72.30
33673;DHT22;20011;51.510;9.942;2023-06-05T12:16:41;17.80;72.80
33673;DHT22;20011;51.510;9.942;2023-06-05T12:21:43;17.70;65.60
33673;DHT22;20011;51.510;9.942;2023-06-05T12:24:11;18.00;63.60
33673;DHT22;20011;51.510;9.942;2023-06-05T12:26:56;18.10;62.20
33673;DHT22;20011;51.510;9.942;2023-06-05T12:29:29;18.00;64.30
33673;DHT22;20011;51.510;9.942;2023-06-05T12:31:57;17.90;65.50
33673;DHT22;20011;51.510;9.942;2023-06-05T12:37:25;17.80;65.20
33673;DHT22;20011;51.510;9.942;2023-06-05T12:39:56;17.90;62.90
33673;DHT22;20011;51.510;9.942;2023-06-05T12:42:25;18.00;61.80
33673;DHT22;20011;51.510;9.942;2023-06-05T12:44:52;17.90;62.40
33673;DHT22;20011;51.510;9.942;2023-06-05T12:47:19;17.80;63.20
33673;DHT22;20011;51.510;9.942;2023-06-05T12:49:46;17.80;64.10
33673;DHT22;20011;51.510;9.942;2023-06-05T12:52:13;17.90;66.10
33673;DHT22;20011;51.510;9.942;2023-06-05T12:54:40;17.80;67.50
33673;DHT22;20011;51.510;9.942;2023-06-05T12:57:08;17.80;67.80
33673;DHT22;20011;51.510;9.942;2023-06-05T12:59:39;17.70;68.50
33673;DHT22;20011;51.510;9.942;2023-06-05T13:02:06;17.60;70.00
33673;DHT22;20011;51.510;9.942;2023-06-05T13:04:34;17.60;70.00
33673;DHT22;20011;51.510;9.942;2023-06-05T13:07:02;17.60;72.30
33673;DHT22;20011;51.510;9.942;2023-06-05T13:09:30;17.60;73.40
33673;DHT22;20011;51.510;9.942;2023-06-05T13:11:58;17.50;73.40
33673;DHT22;20011;51.510;9.942;2023-06-05T13:14:27;17.50;72.20
33673;DHT22;20011;51.510;9.942;2023-06-05T13:16:54;17.50;71.60
33673;DHT22;20011;51.510;9.942;2023-06-05T13:19:21;17.50;73.50
33673;DHT22;20011;51.510;9.942;2023-06-05T13:21:49;17.40;75.00
33673;DHT22;20011;51.510;9.942;2023-06-05T13:24:16;17.40;77.70
33673;DHT22;20011;51.510;9.942;2023-06-05T13:26:44;17.40;79.20
33673;DHT22;20011;51.510;9.942;2023-06-05T13:29:11;17.40;79.20
33673;DHT22;20011;51.510;9.942;2023-06-05T13:31:38;17.40;79.10
33673;DHT22;20011;51.510;9.942;2023-06-05T13:34:05;17.40;80.30
33673;DHT22;20011;51.510;9.942;2023-06-05T13:36:32;17.40;80.40
33673;DHT22;20011;51.510;9.942;2023-06-05T13:39:00;17.40;80.70
33673;DHT22;20011;51.510;9.942;2023-06-05T13:41:27;17.40;81.10
33673;DHT22;20011;51.510;9.942;2023-06-05T13:43:54;17.40;79.80
33673;DHT22;20011;51.510;9.942;2023-06-05T13:46:24;17.40;79.40
33673;DHT22;20011;51.510;9.942;2023-06-05T13:48:54;17.40;78.40
33673;DHT22;20011;51.510;9.942;2023-06-05T13:51:23;17.40;78.60
33673;DHT22;20011;51.510;9.942;2023-06-05T13:53:50;17.40;80.60
33673;DHT22;20011;51.510;9.942;2023-06-05T13:56:17;17.40;80.30
33673;DHT22;20011;51.510;9.942;2023-06-05T13:58:44;17.40;80.10
33673;DHT22;20011;51.510;9.942;2023-06-05T14:01:11;17.40;79.00
33673;DHT22;20011;51.510;9.942;2023-06-05T14:03:38;17.40;78.60
33673;DHT22;20011;51.510;9.942;2023-06-05T14:06:05;17.40;80.20
33673;DHT22;20011;51.510;9.942;2023-06-05T14:08:32;17.40;83.00
33673;DHT22;20011;51.510;9.942;2023-06-05T14:11:00;17.40;84.40
33673;DHT22;20011;51.510;9.942;2023-06-05T14:13:27;17.40;84.50
33673;DHT22;20011;51.510;9.942;2023-06-05T14:15:54;17.40;77.40
33673;DHT22;20011;51.510;9.942;2023-06-05T14:18:21;17.60;79.10
33673;DHT22;20011;51.510;9.942;2023-06-05T14:20:48;17.70;77.00
33673;DHT22;20011;51.510;9.942;2023-06-05T14:23:15;17.70;78.30
33673;DHT22;20011;51.510;9.942;2023-06-05T14:25:43;17.70;78.60
33673;DHT22;20011;51.510;9.942;2023-06-05T14:28:10;17.60;82.00
33673;DHT22;20011;51.510;9.942;2023-06-05T14:30:37;17.60;82.60
33673;DHT22;20011;51.510;9.942;2023-06-05T14:33:04;17.60;83.30
33673;DHT22;20011;51.510;9.942;2023-06-05T14:35:31;17.60;83.00
33673;DHT22;20011;51.510;9.942;2023-06-05T14:37:58;17.60;82.50
33673;DHT22;20011;51.510;9.942;2023-06-05T14:40:25;17.60;83.50
33673;DHT22;20011;51.510;9.942;2023-06-05T14:42:52;17.60;83.30
33673;DHT22;20011;51.510;9.942;2023-06-05T14:45:19;17.60;71.80
33673;DHT22;20011;51.510;9.942;2023-06-05T14:47:46;17.60;68.30
33673;DHT22;20011;51.510;9.942;2023-06-05T14:50:14;17.80;66.40
33673;DHT22;20011;51.510;9.942;2023-06-05T14:52:41;17.80;66.20
33673;DHT22;20011;51.510;9.942;2023-06-05T14:55:08;17.90;65.10
33673;DHT22;20011;51.510;9.942;2023-06-05T14:57:36;18.20;64.00
33673;DHT22;20011;51.510;9.942;2023-06-05T15:00:04;18.10;65.20
33673;DHT22;20011;51.510;9.942;2023-06-05T15:02:32;18.00;67.40
33673;DHT22;20011;51.510;9.942;2023-06-05T15:05:00;18.00;67.60
33673;DHT22;20011;51.510;9.942;2023-06-05T15:07:40;17.90;68.10
33673;DHT22;20011;51.510;9.942;2023-06-05T15:10:07;17.90;69.00
33673;DHT22;20011;51.510;9.942;2023-06-05T15:12:35;17.80;71.10
33673;DHT22;20011;51.510;9.942;2023-06-05T15:15:03;17.80;68.50
33673;DHT22;20011;51.510;9.942;2023-06-05T15:17:33;18.00;65.30
33673;DHT22;20011;51.510;9.942;2023-06-05T15:20:00;18.00;65.10
33673;DHT22;20011;51.510;9.942;2023-06-05T15:22:27;18.00;64.70
33673;DHT22;20011;51.510;9.942;2023-06-05T15:24:54;18.00;65.30
33673;DHT22;20011;51.510;9.942;2023-06-05T15:27:22;18.00;66.30
33673;DHT22;20011;51.510;9.942;2023-06-05T15:29:55;18.00;67.00
33673;DHT22;20011;51.510;9.942;2023-06-05T15:32:22;17.90;68.70
33673;DHT22;20011;51.510;9.942;2023-06-05T15:34:49;17.80;75.30
33673;DHT22;20011;51.510;9.942;2023-06-05T15:37:16;17.90;76.30
33673;DHT22;20011;51.510;9.942;2023-06-05T15:39:43;17.80;77.40
33673;DHT22;20011;51.510;9.942;2023-06-05T15:42:10;17.80;76.80
33673;DHT22;20011;51.510;9.942;2023-06-05T15:44:38;17.70;76.50
33673;DHT22;20011;51.510;9.942;2023-06-05T15:47:08;17.80;72.00
33673;DHT22;20011;51.510;9.942;2023-06-05T15:49:35;17.80;71.00
33673;DHT22;20011;51.510;9.942;2023-06-05T15:52:01;17.70;70.90
33673;DHT22;20011;51.510;9.942;2023-06-05T15:54:28;17.70;70.50
33673;DHT22;20011;51.510;9.942;2023-06-05T15:57:17;17.70;70.40
33673;DHT22;20011;51.510;9.942;2023-06-05T15:59:47;17.70;70.60
33673;DHT22;20011;51.510;9.942;2023-06-05T16:02:14;17.70;77.90
33673;DHT22;20011;51.510;9.942;2023-06-05T16:04:41;17.70;77.60
33673;DHT22;20011;51.510;9.942;2023-06-05T16:07:08;17.70;78.10
33673;DHT22;20011;51.510;9.942;2023-06-05T16:09:35;17.60;79.40
33673;DHT22;20011;51.510;9.942;2023-06-05T16:12:02;17.60;81.60
33673;DHT22;20011;51.510;9.942;2023-06-05T16:14:29;17.60;82.70
33673;DHT22;20011;51.510;9.942;2023-06-05T16:16:57;17.60;83.40
33673;DHT22;20011;51.510;9.942;2023-06-05T16:19:24;17.60;84.30